Springbrook, North Dakota
Current Conditions -  °F | °C
As of 11:14 AM on Sunday 23 Nov 2014 (Local Time) from KISN Reporting Station
Light Snow Light Snow  
Wind Chill:   Ceiling: 4200
Heat Index: 18°   Visibility: 6mi
Dew Point: 10°   Wind: 24mph
Humidity: 71%   Direction: 320°NW
Pressure: 29.7"   Gusts: 32mph
Location:  48.2414°N, 103.345°W
Report Text: KISN 231714Z AUTO 32021G28KT 6SM -SN FEW018 BKN042 OVC050 M08/M12 A2970 RMK AO2 PK WND 31030/1701 P0000 T10781122
Loading
Personal Weather Stations






























Interactive Weather Map New forecast layout! Learn more

10-Day Weather Forecast

Advertisements
Track Severe Weather on mobile